Time;durP1;ratioP1;P1;durP2;ratioP2;P2;SDS_P1;SDS_P2;PMS_P1;PMS_P2;Temp;Humidity;BMP_temperature;BMP_pressure;BME280_temperature;BME280_humidity;BME280_pressure;Samples;Min_cycle;Max_cycle;Signal;HPM_P1;HPM_P2
2023/04/17 00:01:37;;;;;;;23.95;11.43;;;6.10;75.90;;;;;;4951158;29;20050;-71
2023/04/17 00:04:09;;;;;;;22.92;9.55;;;6.10;78.10;;;;;;4951072;29;20043;-72
2023/04/17 00:06:37;;;;;;;32.88;10.57;;;6.10;78.00;;;;;;4952146;29;20526;-72
2023/04/17 00:09:04;;;;;;;33.83;10.52;;;6.00;77.10;;;;;;4935534;29;20043;-73
2023/04/17 00:11:32;;;;;;;24.65;9.95;;;6.00;78.20;;;;;;4951022;28;20059;-73
2023/04/17 00:14:00;;;;;;;21.27;10.27;;;6.00;78.80;;;;;;4934725;29;20071;-73
2023/04/17 00:16:29;;;;;;;28.70;11.32;;;6.00;78.30;;;;;;4944405;29;20047;-72
2023/04/17 00:18:56;;;;;;;26.13;10.00;;;5.90;78.50;;;;;;4948756;29;20587;-72
2023/04/17 00:21:24;;;;;;;19.65;9.48;;;5.90;78.60;;;;;;4947276;29;20047;-72
2023/04/17 00:23:52;;;;;;;23.17;10.45;;;5.90;78.60;;;;;;4953056;29;20059;-71
2023/04/17 00:26:19;;;;;;;21.83;9.95;;;5.80;79.20;;;;;;4910717;29;20536;-71
2023/04/17 00:28:49;;;;;;;15.50;8.82;;;5.80;79.70;;;;;;4928353;29;20074;-71
2023/04/17 00:31:17;;;;;;;27.05;9.43;;;5.80;80.10;;;;;;4944791;29;20047;-71
2023/04/17 00:33:46;;;;;;;18.38;10.27;;;5.70;80.00;;;;;;4951613;28;20058;-74
2023/04/17 00:36:14;;;;;;;26.83;9.40;;;5.70;80.00;;;;;;4950481;28;20039;-72
2023/04/17 00:38:42;;;;;;;21.45;8.57;;;5.60;80.70;;;;;;4951556;29;20063;-72
2023/04/17 00:41:10;;;;;;;23.33;9.85;;;5.60;81.00;;;;;;4934205;29;20058;-72
2023/04/17 00:43:38;;;;;;;23.77;9.82;;;5.60;81.20;;;;;;4925158;29;20599;-72
2023/04/17 00:46:06;;;;;;;18.90;8.57;;;5.60;81.70;;;;;;4950975;29;20074;-73
2023/04/17 00:48:35;;;;;;;14.63;8.50;;;5.60;81.20;;;;;;4950495;29;20504;-73
2023/04/17 00:51:07;;;;;;;18.77;8.00;;;5.60;81.40;;;;;;4952015;29;20091;-73
2023/04/17 00:53:35;;;;;;;20.42;9.55;;;5.60;81.90;;;;;;4952843;29;20508;-73
2023/04/17 00:56:05;;;;;;;17.67;7.60;;;5.50;83.10;;;;;;4932593;29;20138;-74
2023/04/17 00:58:36;;;;;;;20.15;8.98;;;5.50;83.80;;;;;;4953094;29;20504;-74
2023/04/17 01:01:05;;;;;;;23.88;9.20;;;5.40;84.40;;;;;;4933128;29;20587;-74
2023/04/17 01:03:32;;;;;;;21.02;8.50;;;5.40;84.70;;;;;;4932514;29;20035;-73
2023/04/17 01:06:02;;;;;;;18.13;8.88;;;5.30;85.70;;;;;;4934420;29;20047;-74
2023/04/17 01:08:41;;;;;;;17.75;8.55;;;5.20;86.30;;;;;;4951268;28;20048;-74
2023/04/17 01:11:09;;;;;;;18.75;8.73;;;5.10;87.50;;;;;;4934350;29;20051;-74
2023/04/17 01:13:46;;;;;;;21.05;8.70;;;5.00;90.30;;;;;;4934291;29;20060;-74
2023/04/17 01:16:13;;;;;;;17.02;9.55;;;5.00;91.80;;;;;;4951561;29;20106;-74
2023/04/17 01:18:41;;;;;;;23.23;9.80;;;5.00;92.70;;;;;;4950534;29;20426;-73
2023/04/17 01:21:10;;;;;;;21.83;9.15;;;4.90;93.80;;;;;;4949530;29;20047;-74
2023/04/17 01:23:45;;;;;;;21.92;8.38;;;4.80;95.40;;;;;;4933594;29;20048;-73
2023/04/17 01:26:18;;;;;;;26.83;9.63;;;4.80;97.60;;;;;;4933200;29;20114;-74
2023/04/17 01:28:51;;;;;;;21.67;9.20;;;4.70;99.30;;;;;;4911164;29;20061;-73
2023/04/17 01:31:20;;;;;;;29.33;9.30;;;4.60;99.90;;;;;;4931849;29;20051;-73
2023/04/17 01:33:51;;;;;;;16.73;8.63;;;4.60;99.90;;;;;;4946087;29;20142;-74
2023/04/17 01:36:19;;;;;;;20.90;9.15;;;4.60;99.90;;;;;;4921561;29;20055;-74
2023/04/17 01:38:47;;;;;;;26.38;9.85;;;4.50;99.90;;;;;;4934799;29;20055;-74
2023/04/17 01:41:16;;;;;;;24.65;10.35;;;4.60;99.90;;;;;;4918223;29;20083;-74
2023/04/17 01:43:45;;;;;;;21.63;10.57;;;4.50;99.90;;;;;;4952599;29;20055;-73
2023/04/17 01:46:13;;;;;;;22.40;10.40;;;4.50;99.90;;;;;;4919150;29;20097;-74
2023/04/17 01:48:42;;;;;;;21.42;10.10;;;4.50;99.90;;;;;;4916289;29;20569;-74
2023/04/17 01:51:10;;;;;;;19.98;9.30;;;4.50;99.90;;;;;;4951070;29;20047;-74
2023/04/17 01:53:41;;;;;;;23.65;10.20;;;4.50;99.90;;;;;;4932824;29;20086;-74
2023/04/17 01:56:08;;;;;;;18.70;9.38;;;4.40;99.90;;;;;;4929070;29;20047;-74
2023/04/17 01:58:37;;;;;;;25.40;10.77;;;4.40;99.90;;;;;;4933857;29;20515;-73
2023/04/17 02:01:05;;;;;;;24.33;9.80;;;4.40;99.90;;;;;;4949808;29;20058;-74
2023/04/17 02:03:32;;;;;;;35.78;10.30;;;4.40;99.90;;;;;;4949673;28;20390;-74
2023/04/17 02:06:00;;;;;;;20.50;9.93;;;4.40;99.90;;;;;;4951009;29;20047;-74
2023/04/17 02:08:28;;;;;;;21.48;10.77;;;4.40;99.90;;;;;;4931878;29;20085;-73
2023/04/17 02:10:59;;;;;;;17.70;10.75;;;4.30;99.90;;;;;;4950036;29;20134;-73
2023/04/17 02:13:27;;;;;;;27.55;10.27;;;4.30;99.90;;;;;;4952399;29;20083;-74
2023/04/17 02:15:56;;;;;;;17.15;8.85;;;4.30;99.90;;;;;;4948541;29;20055;-73
2023/04/17 02:18:49;;;;;;;22.58;9.43;;;4.30;99.90;;;;;;4906993;29;20057;-75
2023/04/17 02:21:17;;;;;;;26.65;9.63;;;4.30;99.90;;;;;;4940759;29;20143;-73
2023/04/17 02:23:44;;;;;;;23.38;9.93;;;4.30;99.90;;;;;;4946903;29;20516;-74
2023/04/17 02:26:13;;;;;;;33.00;12.15;;;4.30;99.90;;;;;;4937625;29;20051;-73
2023/04/17 02:28:40;;;;;;;24.80;10.32;;;4.20;99.90;;;;;;4922925;29;20039;-74
2023/04/17 02:31:09;;;;;;;36.17;10.15;;;4.10;99.90;;;;;;4916516;29;20070;-74
2023/04/17 02:33:37;;;;;;;31.83;9.23;;;4.10;99.90;;;;;;4950588;29;20134;-74
2023/04/17 02:36:06;;;;;;;27.52;10.95;;;4.00;99.90;;;;;;4932566;29;20085;-74
2023/04/17 02:38:39;;;;;;;24.15;10.25;;;3.90;99.90;;;;;;4932930;29;20098;-74
2023/04/17 02:41:07;;;;;;;34.33;9.35;;;3.90;99.90;;;;;;4933135;29;20051;-73
2023/04/17 02:43:36;;;;;;;27.75;10.88;;;3.90;99.90;;;;;;4933267;29;20050;-73
2023/04/17 02:46:03;;;;;;;22.17;11.32;;;3.80;99.90;;;;;;4949244;29;20066;-74
2023/04/17 02:48:32;;;;;;;24.27;9.82;;;3.80;99.90;;;;;;4933719;29;20061;-73
2023/04/17 02:51:00;;;;;;;27.40;10.05;;;3.80;99.90;;;;;;4933326;29;20062;-73
2023/04/17 02:53:29;;;;;;;29.48;10.68;;;3.80;99.90;;;;;;4916346;29;20054;-73
2023/04/17 02:55:58;;;;;;;28.75;9.52;;;3.70;99.90;;;;;;4950577;28;20054;-74
2023/04/17 02:58:25;;;;;;;23.10;9.77;;;3.70;99.90;;;;;;4934234;29;20406;-73
2023/04/17 03:01:01;;;;;;;32.00;9.70;;;3.70;99.90;;;;;;4946001;29;20679;-74
2023/04/17 03:03:33;;;;;;;23.50;9.27;;;3.60;99.90;;;;;;4952106;28;20047;-74
2023/04/17 03:06:05;;;;;;;25.20;9.23;;;3.60;99.90;;;;;;4936989;29;20163;-74
2023/04/17 03:08:34;;;;;;;23.83;9.23;;;3.60;99.90;;;;;;4937116;29;20508;-74
2023/04/17 03:11:02;;;;;;;19.90;9.07;;;3.50;99.90;;;;;;4920462;29;20150;-74
2023/04/17 03:13:30;;;;;;;28.80;9.70;;;3.60;99.90;;;;;;4952103;29;20480;-74
2023/04/17 03:15:57;;;;;;;26.95;9.23;;;3.50;99.90;;;;;;4936574;29;20047;-74
2023/04/17 03:18:25;;;;;;;30.38;9.40;;;3.50;99.90;;;;;;4954405;29;20086;-74
2023/04/17 03:20:57;;;;;;;31.17;9.57;;;3.50;99.90;;;;;;4952399;29;20059;-73
2023/04/17 03:23:25;;;;;;;34.22;10.35;;;3.50;99.90;;;;;;4951749;29;20543;-73
2023/04/17 03:25:53;;;;;;;32.33;10.10;;;3.50;99.90;;;;;;4931475;29;20050;-72
2023/04/17 03:28:22;;;;;;;23.13;9.20;;;3.50;99.90;;;;;;4951778;28;20524;-72
2023/04/17 03:30:51;;;;;;;26.52;9.20;;;3.50;99.90;;;;;;4939193;29;20055;-74
2023/04/17 03:33:18;;;;;;;27.60;9.90;;;3.50;99.90;;;;;;4931630;29;20049;-73
2023/04/17 03:35:46;;;;;;;36.15;10.68;;;3.60;99.90;;;;;;4935477;29;20062;-73
2023/04/17 03:38:15;;;;;;;36.17;10.15;;;3.50;99.90;;;;;;4935153;29;20055;-73
2023/04/17 03:40:43;;;;;;;52.63;11.85;;;3.50;99.90;;;;;;4932663;29;20083;-75
2023/04/17 03:43:11;;;;;;;48.17;11.40;;;3.60;99.90;;;;;;4936113;29;20456;-74
2023/04/17 03:45:39;;;;;;;44.58;12.10;;;3.60;99.90;;;;;;4951908;28;20054;-72
2023/04/17 03:48:07;;;;;;;48.35;11.07;;;3.60;99.90;;;;;;4935303;29;20062;-73
2023/04/17 03:50:35;;;;;;;56.80;11.95;;;3.60;99.90;;;;;;4950928;28;20062;-74
2023/04/17 03:53:03;;;;;;;43.05;11.20;;;3.70;99.90;;;;;;4928706;29;20047;-73
2023/04/17 03:55:33;;;;;;;48.28;11.68;;;3.70;99.90;;;;;;4949637;28;20051;-73
2023/04/17 03:58:01;;;;;;;61.65;12.23;;;3.80;99.90;;;;;;4935782;29;20081;-73
2023/04/17 04:00:31;;;;;;;44.80;10.90;;;3.80;99.90;;;;;;4918315;29;20604;-73
2023/04/17 04:03:05;;;;;;;43.28;11.15;;;3.80;99.90;;;;;;4935245;29;20043;-73
2023/04/17 04:05:39;;;;;;;52.58;12.40;;;3.90;99.90;;;;;;4934634;29;20106;-73
2023/04/17 04:08:09;;;;;;;35.95;9.68;;;3.90;99.90;;;;;;4949882;28;20512;-73
2023/04/17 04:10:46;;;;;;;30.90;9.60;;;4.00;99.90;;;;;;4934834;29;20053;-73
2023/04/17 04:13:19;;;;;;;39.40;9.48;;;4.20;99.90;;;;;;4932763;29;20058;-72
2023/04/17 04:15:53;;;;;;;29.90;8.50;;;4.40;99.90;;;;;;4950481;28;20712;-74
2023/04/17 04:18:25;;;;;;;36.95;9.65;;;4.50;99.90;;;;;;4952485;28;20071;-74
2023/04/17 04:20:53;;;;;;;32.50;11.02;;;4.70;99.90;;;;;;4929822;29;20071;-76
2023/04/17 04:23:29;;;;;;;32.75;10.45;;;4.80;99.90;;;;;;4919691;29;20047;-77
2023/04/17 04:26:00;;;;;;;26.77;9.63;;;4.90;99.90;;;;;;4929356;29;20059;-79
2023/04/17 04:28:48;;;;;;;26.00;8.25;;;5.10;99.90;;;;;;4947862;29;20339;-78
2023/04/17 04:31:21;;;;;;;24.65;9.07;;;5.20;99.90;;;;;;4926672;29;20517;-79
2023/04/17 04:33:54;;;;;;;20.63;8.60;;;5.30;99.90;;;;;;4954877;29;20055;-80
2023/04/17 04:36:22;;;;;;;24.73;8.38;;;5.40;99.90;;;;;;4956530;28;20051;-81
2023/04/17 04:38:59;;;;;;;25.55;8.25;;;5.50;99.90;;;;;;4922308;29;20145;-80
2023/04/17 04:41:33;;;;;;;32.22;8.68;;;5.60;99.90;;;;;;4930416;29;20051;-78
2023/04/17 04:44:06;;;;;;;23.70;8.25;;;5.60;99.90;;;;;;4951550;29;20062;-77
2023/04/17 04:46:37;;;;;;;20.48;7.90;;;5.60;99.90;;;;;;4959454;28;20040;-78
2023/04/17 04:49:16;;;;;;;19.83;9.55;;;5.60;99.90;;;;;;4937091;29;20130;-80
2023/04/17 04:51:44;;;;;;;19.48;8.60;;;5.60;99.90;;;;;;4918240;29;20052;-80
2023/04/17 04:54:11;;;;;;;37.85;9.45;;;5.60;99.90;;;;;;4918248;29;20043;-76
2023/04/17 04:56:52;;;;;;;50.40;11.27;;;5.70;99.90;;;;;;4931613;29;20047;-77
2023/04/17 04:59:21;;;;;;;51.50;11.23;;;5.70;99.90;;;;;;4953007;29;20065;-83
2023/04/17 05:01:58;;;;;;;50.50;9.38;;;5.70;99.90;;;;;;4934914;29;20047;-77
2023/04/17 05:04:26;;;;;;;46.20;9.65;;;5.80;99.90;;;;;;4930564;29;20055;-74
2023/04/17 05:06:58;;;;;;;30.20;10.27;;;5.80;99.90;;;;;;4933852;29;20051;-77
2023/04/17 05:09:26;;;;;;;40.90;15.13;;;5.90;99.90;;;;;;4919021;29;20051;-80
2023/04/17 05:11:58;;;;;;;29.50;9.30;;;5.90;99.90;;;;;;4935096;28;20158;-82
2023/04/17 05:14:26;;;;;;;51.72;11.48;;;6.00;99.90;;;;;;4933298;29;20044;-82
2023/04/17 05:16:54;;;;;;;34.63;9.80;;;6.00;99.90;;;;;;4932733;29;20101;-82
2023/04/17 05:19:23;;;;;;;52.38;11.60;;;6.10;99.90;;;;;;4933432;29;20394;-80
2023/04/17 05:22:07;;;;;;;27.80;9.95;;;6.10;99.90;;;;;;4917196;29;20053;-78
2023/04/17 05:24:42;;;;;;;27.73;9.57;;;6.20;99.90;;;;;;4933514;29;20392;-79
2023/04/17 05:27:12;;;;;;;18.48;8.80;;;6.40;99.90;;;;;;4913562;29;20047;-78
2023/04/17 05:29:40;;;;;;;24.60;8.05;;;6.60;99.90;;;;;;4933296;29;20055;-78
2023/04/17 05:32:09;;;;;;;28.23;8.20;;;7.20;99.90;;;;;;4933771;29;20051;-77
2023/04/17 05:34:54;;;;;;;30.85;9.85;;;7.80;99.10;;;;;;4932292;29;20051;-78
2023/04/17 05:37:26;;;;;;;27.95;7.22;;;8.50;96.60;;;;;;4951111;29;20075;-77
2023/04/17 05:39:53;;;;;;;22.90;7.75;;;9.00;93.00;;;;;;4949497;29;20047;-78
2023/04/17 05:42:22;;;;;;;25.33;7.53;;;9.50;90.30;;;;;;4933407;29;20460;-77
2023/04/17 05:44:50;;;;;;;16.08;7.38;;;9.90;88.30;;;;;;4948613;29;20559;-78
2023/04/17 05:47:19;;;;;;;21.13;7.90;;;10.40;84.50;;;;;;4933100;29;20051;-77
2023/04/17 05:49:47;;;;;;;18.27;8.05;;;10.90;81.20;;;;;;4948326;29;20496;-77
2023/04/17 05:52:14;;;;;;;15.70;7.78;;;11.30;77.30;;;;;;4917394;29;20062;-79
2023/04/17 05:54:44;;;;;;;23.10;8.40;;;11.70;75.60;;;;;;4924184;29;20051;-76
2023/04/17 05:57:12;;;;;;;16.17;7.57;;;12.10;72.60;;;;;;4927201;29;20130;-78
2023/04/17 05:59:42;;;;;;;14.77;6.35;;;12.50;70.70;;;;;;4951458;29;20058;-78
2023/04/17 06:02:11;;;;;;;27.95;8.70;;;12.70;67.10;;;;;;4950390;29;20055;-78
2023/04/17 06:04:40;;;;;;;20.00;7.25;;;12.80;66.00;;;;;;4935471;29;20043;-77
2023/04/17 06:07:09;;;;;;;20.42;12.57;;;12.90;64.70;;;;;;4931192;29;20047;-77
2023/04/17 06:09:37;;;;;;;16.40;7.40;;;13.10;65.00;;;;;;4900578;29;20048;-78
2023/04/17 06:12:05;;;;;;;15.52;7.00;;;13.40;64.00;;;;;;4942771;29;20059;-77
2023/04/17 06:14:34;;;;;;;12.35;7.65;;;13.80;62.90;;;;;;4951173;29;20063;-77
2023/04/17 06:17:07;;;;;;;30.03;8.93;;;14.20;60.70;;;;;;4946921;28;20051;-76
2023/04/17 06:19:35;;;;;;;31.17;9.13;;;14.50;59.60;;;;;;4950660;29;20047;-77
2023/04/17 06:22:02;;;;;;;16.00;8.13;;;14.70;58.90;;;;;;4948896;29;20051;-75
2023/04/17 06:24:30;;;;;;;16.10;7.22;;;15.00;58.60;;;;;;4948245;28;20102;-78
2023/04/17 06:26:58;;;;;;;16.27;7.32;;;15.20;57.20;;;;;;4943085;29;20074;-82
2023/04/17 06:29:26;;;;;;;21.17;7.68;;;15.50;56.30;;;;;;4942673;29;20114;-83
2023/04/17 06:31:54;;;;;;;15.98;7.40;;;15.70;55.60;;;;;;4917237;29;20047;-80
2023/04/17 06:34:24;;;;;;;33.55;8.05;;;15.80;54.40;;;;;;4953700;29;20428;-82
2023/04/17 06:36:52;;;;;;;17.13;7.28;;;15.80;54.70;;;;;;4934939;29;20417;-81
2023/04/17 06:39:20;;;;;;;16.15;7.38;;;16.00;54.60;;;;;;4936342;29;20043;-80
2023/04/17 06:41:49;;;;;;;22.95;6.95;;;16.20;53.90;;;;;;4952699;28;20441;-80
2023/04/17 06:44:25;;;;;;;22.40;7.50;;;16.50;53.30;;;;;;4935223;29;20507;-81
2023/04/17 06:46:55;;;;;;;12.98;7.22;;;16.80;52.90;;;;;;4934428;29;20070;-81
2023/04/17 06:49:24;;;;;;;69.93;12.27;;;17.10;51.80;;;;;;4953878;29;20051;-79
2023/04/17 06:51:54;;;;;;;21.17;9.52;;;17.40;51.60;;;;;;4953461;28;20504;-78
2023/04/17 06:54:22;;;;;;;23.88;7.68;;;17.70;50.50;;;;;;4951063;29;20043;-80
2023/04/17 06:56:49;;;;;;;25.60;7.45;;;18.00;49.50;;;;;;4953047;29;20047;-81
2023/04/17 06:59:17;;;;;;;42.60;15.10;;;18.20;49.20;;;;;;4936500;29;20572;-80
2023/04/17 07:01:45;;;;;;;19.23;6.35;;;18.50;48.80;;;;;;4936209;29;20051;-80
2023/04/17 07:04:13;;;;;;;16.20;7.00;;;18.70;48.20;;;;;;4951752;29;20106;-80
2023/04/17 07:06:42;;;;;;;25.13;7.70;;;18.90;47.40;;;;;;4952496;29;20074;-79
2023/04/17 07:09:09;;;;;;;15.52;6.53;;;18.80;47.40;;;;;;4952760;29;20049;-79
2023/04/17 07:11:37;;;;;;;18.23;6.80;;;18.50;47.70;;;;;;4934899;29;20055;-79
2023/04/17 07:14:05;;;;;;;25.77;7.07;;;18.30;47.60;;;;;;4952556;29;20055;-79
2023/04/17 07:16:32;;;;;;;29.38;7.88;;;18.40;47.70;;;;;;4917505;29;20053;-79
2023/04/17 07:19:00;;;;;;;21.50;8.52;;;18.60;47.60;;;;;;4934227;29;20078;-76
2023/04/17 07:21:27;;;;;;;12.98;6.45;;;19.00;47.00;;;;;;4933351;28;20065;-79
2023/04/17 07:23:56;;;;;;;12.73;5.43;;;19.50;46.00;;;;;;4959821;28;20090;-80
2023/04/17 07:26:24;;;;;;;15.88;5.15;;;19.90;44.80;;;;;;4957901;28;20078;-80
2023/04/17 07:28:54;;;;;;;12.52;5.25;;;20.40;43.40;;;;;;4961195;28;20186;-80
2023/04/17 07:31:22;;;;;;;17.25;5.88;;;20.80;42.60;;;;;;4953763;28;20055;-79
2023/04/17 07:33:49;;;;;;;22.77;5.50;;;21.00;41.90;;;;;;4922256;29;20055;-81
2023/04/17 07:36:17;;;;;;;11.77;4.80;;;21.20;41.30;;;;;;4920728;28;20051;-80
2023/04/17 07:38:44;;;;;;;15.45;4.53;;;21.40;41.20;;;;;;4944378;28;20051;-79
2023/04/17 07:41:13;;;;;;;13.75;5.20;;;21.50;40.80;;;;;;4955708;28;20066;-80
2023/04/17 07:43:41;;;;;;;17.27;4.60;;;21.60;41.60;;;;;;4949124;28;20047;-80
2023/04/17 07:46:08;;;;;;;22.27;5.75;;;21.70;40.30;;;;;;4937158;28;20084;-79
2023/04/17 07:48:36;;;;;;;14.55;5.68;;;22.00;39.80;;;;;;4953322;29;20086;-79
2023/04/17 07:51:03;;;;;;;10.15;5.53;;;22.20;39.40;;;;;;4951525;29;20055;-79
2023/04/17 07:53:30;;;;;;;7.25;4.70;;;22.40;38.70;;;;;;4954388;28;20047;-79
2023/04/17 07:55:59;;;;;;;40.00;6.43;;;22.60;38.10;;;;;;4935451;29;20055;-79
2023/04/17 07:58:28;;;;;;;9.98;4.90;;;22.80;37.50;;;;;;4942562;28;20105;-79
2023/04/17 08:00:56;;;;;;;10.57;4.07;;;23.00;37.40;;;;;;4949125;29;20574;-78
2023/04/17 08:03:24;;;;;;;10.43;5.55;;;23.20;37.00;;;;;;4933868;29;20125;-78
2023/04/17 08:05:55;;;;;;;26.23;7.45;;;23.40;36.20;;;;;;4934992;29;20087;-80
2023/04/17 08:08:22;;;;;;;70.43;6.90;;;23.60;36.30;;;;;;4935229;29;20056;-81
2023/04/17 08:10:50;;;;;;;14.85;5.18;;;23.80;35.70;;;;;;4934228;29;20051;-80
2023/04/17 08:13:17;;;;;;;19.38;5.43;;;23.90;35.30;;;;;;4940826;28;20082;-81
2023/04/17 08:15:46;;;;;;;15.02;5.63;;;24.00;34.70;;;;;;4947138;28;20047;-81
2023/04/17 08:18:14;;;;;;;9.38;4.45;;;24.00;34.30;;;;;;4949089;28;20058;-81
2023/04/17 08:20:41;;;;;;;15.05;4.97;;;24.20;35.10;;;;;;4925052;29;20066;-80
2023/04/17 08:23:09;;;;;;;9.95;4.78;;;24.20;35.70;;;;;;4949853;28;20051;-80
2023/04/17 08:25:38;;;;;;;7.88;4.47;;;24.40;35.10;;;;;;4933852;29;20039;-81
2023/04/17 08:28:06;;;;;;;13.50;4.88;;;24.60;34.70;;;;;;4948566;28;20562;-81
2023/04/17 08:30:33;;;;;;;9.52;4.95;;;24.80;34.70;;;;;;4947056;29;20428;-80
2023/04/17 08:33:04;;;;;;;8.15;4.80;;;25.00;33.80;;;;;;4949018;29;20055;-79
2023/04/17 08:35:32;;;;;;;17.60;5.50;;;25.30;34.40;;;;;;4935073;29;20419;-80
2023/04/17 08:38:01;;;;;;;8.88;5.05;;;25.60;33.70;;;;;;4956008;28;20105;-81
2023/04/17 08:40:29;;;;;;;10.57;4.82;;;25.90;33.70;;;;;;4943811;28;20047;-80
2023/04/17 08:42:56;;;;;;;8.90;4.95;;;26.00;33.50;;;;;;4958017;28;20057;-81
2023/04/17 08:45:24;;;;;;;13.45;4.88;;;26.10;33.10;;;;;;4950768;28;20052;-82
2023/04/17 08:47:52;;;;;;;7.43;4.20;;;26.40;33.40;;;;;;4952947;28;20094;-81
2023/04/17 08:50:22;;;;;;;9.65;4.60;;;26.10;32.40;;;;;;4953170;29;20423;-82
2023/04/17 08:52:51;;;;;;;6.82;4.80;;;26.00;32.90;;;;;;4952540;29;20055;-82
2023/04/17 08:55:27;;;;;;;8.18;5.30;;;26.10;32.60;;;;;;4950105;28;20058;-82
2023/04/17 08:57:57;;;;;;;22.30;5.32;;;25.90;33.00;;;;;;4936578;29;20079;-81
2023/04/17 09:00:27;;;;;;;11.88;4.88;;;26.00;33.50;;;;;;4949167;28;20497;-84
2023/04/17 09:02:56;;;;;;;12.85;5.65;;;26.30;33.40;;;;;;4936243;29;20134;-82
2023/04/17 09:05:29;;;;;;;8.55;4.50;;;26.30;31.80;;;;;;4934740;29;20055;-82
2023/04/17 09:08:09;;;;;;;6.85;4.68;;;26.40;32.50;;;;;;4934014;29;20538;-80
2023/04/17 09:10:38;;;;;;;10.57;4.70;;;26.50;31.60;;;;;;4951833;29;20090;-81
2023/04/17 09:13:07;;;;;;;12.57;4.78;;;26.60;32.20;;;;;;4950129;28;20051;-81
2023/04/17 09:15:38;;;;;;;14.93;5.35;;;26.70;30.90;;;;;;4957864;28;20957;-80
2023/04/17 09:18:05;;;;;;;11.50;4.53;;;27.00;31.50;;;;;;4956062;28;20074;-79
2023/04/17 09:20:50;;;;;;;10.90;5.65;;;27.30;31.70;;;;;;4946847;28;20065;-78
2023/04/17 09:23:18;;;;;;;11.30;5.35;;;27.50;31.50;;;;;;4954947;28;20150;-74
2023/04/17 09:25:46;;;;;;;22.85;8.70;;;27.50;30.90;;;;;;4961622;28;20043;-75
2023/04/17 09:28:21;;;;;;;15.73;6.05;;;27.40;32.50;;;;;;4958270;28;20055;-76
2023/04/17 09:31:03;;;;;;;13.95;5.93;;;27.30;31.40;;;;;;4957939;28;20067;-76
2023/04/17 09:33:33;;;;;;;22.95;5.40;;;27.30;31.00;;;;;;4960857;28;20043;-78
2023/04/17 09:36:22;;;;;;;;;;;27.30;31.50;;;;;;4960564;28;20094;-75
2023/04/17 09:38:50;;;;;;;12.00;5.55;;;27.00;31.00;;;;;;4960923;28;19930;-77
2023/04/17 09:41:25;;;;;;;7.40;5.45;;;26.50;30.90;;;;;;4940315;28;20559;-76
2023/04/17 09:43:55;;;;;;;12.63;5.85;;;26.00;31.20;;;;;;4960936;28;20050;-78
2023/04/17 09:46:40;;;;;;;8.65;5.25;;;25.70;31.50;;;;;;4961200;28;20515;-80
2023/04/17 09:49:11;;;;;;;14.90;5.20;;;25.30;31.80;;;;;;4960215;28;20416;-78
2023/04/17 09:51:40;;;;;;;10.98;5.22;;;25.30;31.70;;;;;;4930201;29;20049;-79
2023/04/17 09:54:11;;;;;;;13.70;5.75;;;25.60;32.30;;;;;;4947801;28;20040;-78
2023/04/17 09:56:40;;;;;;;8.82;4.90;;;25.90;31.30;;;;;;4935910;29;20077;-80
2023/04/17 09:59:08;;;;;;;8.30;5.75;;;26.40;31.20;;;;;;4935404;29;20043;-78
2023/04/17 10:01:38;;;;;;;16.70;6.05;;;27.00;31.10;;;;;;4950734;29;20119;-78
2023/04/17 10:04:06;;;;;;;6.43;5.63;;;27.40;30.60;;;;;;4916884;29;20067;-79
2023/04/17 10:06:35;;;;;;;8.05;5.07;;;27.80;30.50;;;;;;4933723;29;20089;-78
2023/04/17 10:09:04;;;;;;;8.02;5.22;;;27.70;30.70;;;;;;4936126;29;20051;-80
2023/04/17 10:11:38;;;;;;;18.27;6.00;;;27.70;30.50;;;;;;4951976;29;20098;-77
2023/04/17 10:14:12;;;;;;;18.55;6.20;;;28.00;31.40;;;;;;4937746;29;20162;-78
2023/04/17 10:16:42;;;;;;;16.75;6.15;;;28.50;31.50;;;;;;4935255;29;20062;-78
2023/04/17 10:19:29;;;;;;;10.77;5.65;;;28.70;31.10;;;;;;4935417;29;20054;-76
2023/04/17 10:22:39;;;;;;;13.93;5.82;;;28.80;31.00;;;;;;4937606;29;20590;-79
2023/04/17 10:25:25;;;;;;;12.25;5.95;;;28.90;30.00;;;;;;4875357;29;20049;-77
2023/04/17 10:27:57;;;;;;;14.35;5.90;;;28.90;29.80;;;;;;4870970;29;20098;-78
2023/04/17 10:30:50;;;;;;;13.85;6.00;;;29.10;30.10;;;;;;4922662;29;20050;-78
2023/04/17 10:33:38;;;;;;;15.65;5.68;;;29.40;29.30;;;;;;4959978;28;20142;-80
2023/04/17 10:36:48;;;;;;;15.30;6.03;;;29.40;29.90;;;;;;4936183;29;20042;-81
2023/04/17 10:39:17;;;;;;;13.80;6.03;;;29.20;29.20;;;;;;4957348;28;20055;-80
2023/04/17 10:42:06;;;;;;;19.58;6.50;;;28.80;29.90;;;;;;4958330;28;20050;-80
2023/04/17 10:44:36;;;;;;;13.35;6.07;;;27.60;29.60;;;;;;4932530;29;20054;-81
2023/04/17 10:47:07;;;;;;;140.50;12.13;;;26.90;30.60;;;;;;4951081;29;20141;-81
2023/04/17 10:49:51;;;;;;;14.48;6.22;;;27.00;31.40;;;;;;4952933;29;20051;-80
2023/04/17 10:52:43;;;;;;;15.15;6.43;;;27.30;30.10;;;;;;4919826;29;20055;-80
2023/04/17 10:55:16;;;;;;;10.93;6.03;;;27.50;30.20;;;;;;4953593;29;20051;-80
2023/04/17 10:57:59;;;;;;;11.75;6.40;;;27.00;31.00;;;;;;4936107;29;20043;-83
2023/04/17 11:00:33;;;;;;;11.40;6.32;;;26.50;31.70;;;;;;4964767;28;20054;-80
2023/04/17 11:03:02;;;;;;;17.60;6.60;;;26.20;31.90;;;;;;4931416;29;20062;-80
2023/04/17 11:05:31;;;;;;;15.77;5.93;;;26.00;31.60;;;;;;4950820;29;20488;-80
2023/04/17 11:07:58;;;;;;;16.20;7.00;;;26.00;31.80;;;;;;4952689;28;20074;-79
2023/04/17 11:10:26;;;;;;;22.80;7.30;;;26.20;31.40;;;;;;4961737;28;20051;-79
2023/04/17 11:12:55;;;;;;;22.35;7.10;;;26.60;31.50;;;;;;4952268;29;20159;-79
2023/04/17 11:15:27;;;;;;;14.40;6.65;;;27.10;31.10;;;;;;4943556;28;20058;-79
2023/04/17 11:17:58;;;;;;;19.98;7.57;;;27.60;30.90;;;;;;4960119;28;20078;-78
2023/04/17 11:20:29;;;;;;;18.10;6.97;;;28.10;31.10;;;;;;4935143;29;20051;-80
2023/04/17 11:23:00;;;;;;;10.32;6.70;;;28.70;31.00;;;;;;4952585;29;20336;-79
2023/04/17 11:25:32;;;;;;;14.38;6.72;;;29.00;29.60;;;;;;4935726;29;20086;-80
2023/04/17 11:28:03;;;;;;;18.80;8.70;;;29.20;29.30;;;;;;4949004;29;20122;-79
2023/04/17 11:30:33;;;;;;;18.65;6.85;;;29.50;29.10;;;;;;4944630;28;20341;-79
2023/04/17 11:33:02;;;;;;;18.60;7.55;;;29.50;29.10;;;;;;4950613;28;20146;-83
2023/04/17 11:35:33;;;;;;;16.98;7.53;;;29.30;29.00;;;;;;4951243;29;20055;-81
2023/04/17 11:38:11;;;;;;;19.33;6.80;;;29.40;29.00;;;;;;4935608;29;20488;-81
2023/04/17 11:40:47;;;;;;;11.85;7.05;;;29.70;29.10;;;;;;4945653;29;20102;-78
2023/04/17 11:43:17;;;;;;;18.92;7.80;;;30.10;28.80;;;;;;4935457;29;20830;-80
2023/04/17 11:45:47;;;;;;;18.42;7.68;;;30.40;29.10;;;;;;4928090;28;20044;-81
2023/04/17 11:48:18;;;;;;;19.80;6.80;;;30.30;29.10;;;;;;4935080;29;20456;-80
2023/04/17 11:50:46;;;;;;;16.88;7.10;;;30.50;29.20;;;;;;4949313;29;20146;-80
2023/04/17 11:53:15;;;;;;;19.13;7.70;;;30.50;29.00;;;;;;4950684;28;20070;-80
2023/04/17 11:55:43;;;;;;;23.58;6.97;;;30.80;29.20;;;;;;4942340;28;20133;-81
2023/04/17 11:58:12;;;;;;;12.30;7.40;;;31.00;29.00;;;;;;4943229;28;20129;-81
2023/04/17 12:00:42;;;;;;;20.98;7.20;;;30.90;28.70;;;;;;4956747;28;20051;-81
2023/04/17 12:03:33;;;;;;;20.58;8.63;;;31.00;28.60;;;;;;4948386;29;20121;-81
2023/04/17 12:06:02;;;;;;;10.90;6.57;;;30.90;28.70;;;;;;4948527;28;20559;-80
2023/04/17 12:08:30;;;;;;;23.20;7.20;;;30.70;28.50;;;;;;4935914;29;20058;-81
2023/04/17 12:10:58;;;;;;;16.27;6.15;;;30.60;28.80;;;;;;4932860;29;20436;-81
2023/04/17 12:13:26;;;;;;;16.15;7.00;;;30.40;28.70;;;;;;4946838;29;20043;-77
2023/04/17 12:15:55;;;;;;;19.83;7.15;;;30.30;28.90;;;;;;4934098;29;20063;-79
2023/04/17 12:18:22;;;;;;;13.10;6.80;;;30.40;28.90;;;;;;4951118;28;20054;-81
2023/04/17 12:20:51;;;;;;;13.32;7.05;;;30.20;29.10;;;;;;4948716;28;20145;-81
2023/04/17 12:23:18;;;;;;;23.90;8.40;;;30.00;28.80;;;;;;4946509;29;20071;-83
2023/04/17 12:25:46;;;;;;;20.95;6.63;;;30.10;29.10;;;;;;4949425;29;20150;-80
2023/04/17 12:28:13;;;;;;;21.20;7.88;;;30.50;28.90;;;;;;4932960;28;20138;-80
2023/04/17 12:30:41;;;;;;;16.45;7.25;;;30.40;28.40;;;;;;4929447;29;20157;-82
2023/04/17 12:33:10;;;;;;;23.17;7.75;;;30.20;28.80;;;;;;4951967;29;20452;-81
2023/04/17 12:35:39;;;;;;;14.18;7.13;;;30.40;29.50;;;;;;4943129;29;20106;-82
2023/04/17 12:38:06;;;;;;;23.98;8.23;;;30.50;28.90;;;;;;4957529;28;20457;-82
2023/04/17 12:40:34;;;;;;;12.68;7.50;;;30.40;28.60;;;;;;4959378;28;20055;-84
2023/04/17 12:43:03;;;;;;;26.25;7.90;;;30.40;28.40;;;;;;4913210;29;20134;-84
2023/04/17 12:45:32;;;;;;;20.13;7.85;;;30.50;28.60;;;;;;4945580;29;20047;-84
2023/04/17 12:48:00;;;;;;;15.27;7.53;;;30.90;28.60;;;;;;4943315;29;20048;-82
2023/04/17 12:50:29;;;;;;;23.95;7.47;;;31.00;28.70;;;;;;4944312;29;20086;-83
2023/04/17 12:52:56;;;;;;;17.05;7.75;;;31.20;28.40;;;;;;4934942;29;20043;-82
2023/04/17 12:55:25;;;;;;;17.65;7.47;;;31.30;28.50;;;;;;4947460;29;20150;-84
2023/04/17 12:57:53;;;;;;;25.50;7.90;;;31.10;27.90;;;;;;4954467;28;20054;-85